createdAt,value
2022-10-29T00:00:21.196Z,4.53
2022-10-29T00:02:22.733Z,4.50
2022-10-29T00:04:24.348Z,4.05
2022-10-29T00:06:25.989Z,3.88
2022-10-29T00:08:29.261Z,3.70
2022-10-29T00:10:31.345Z,3.88
2022-10-29T00:12:33.131Z,3.50
2022-10-29T00:14:35.289Z,3.63
2022-10-29T00:16:39.087Z,4.20
2022-10-29T00:18:40.850Z,4.10
2022-10-29T00:20:42.381Z,3.97
2022-10-29T00:22:43.998Z,4.30
2022-10-29T00:24:45.498Z,4.18
2022-10-29T00:26:47.133Z,4.32
2022-10-29T00:28:52.771Z,4.20
2022-10-29T00:30:54.812Z,3.80
2022-10-29T00:32:56.913Z,4.28
2022-10-29T00:34:58.555Z,4.13
2022-10-29T00:37:00.168Z,4.45
2022-10-29T00:39:01.751Z,4.22
2022-10-29T00:41:05.423Z,4.45
2022-10-29T00:43:19.227Z,4.35
2022-10-29T00:45:21.587Z,3.45
2022-10-29T00:47:34.166Z,3.65
2022-10-29T00:49:36.713Z,4.20
2022-10-29T00:51:38.735Z,3.55
2022-10-29T00:53:46.752Z,3.35
2022-10-29T00:55:48.961Z,3.67
2022-10-29T00:57:54.631Z,4.15
2022-10-29T00:59:56.907Z,3.63
2022-10-29T01:01:58.915Z,3.35
2022-10-29T01:04:00.767Z,3.70
2022-10-29T01:06:03.586Z,3.70
2022-10-29T01:08:05.545Z,3.92
2022-10-29T01:10:07.849Z,2.95
2022-10-29T01:12:18.764Z,3.25
2022-10-29T01:14:40.871Z,3.78
2022-10-29T01:17:07.905Z,3.80
2022-10-29T01:19:28.078Z,3.42
2022-10-29T01:21:35.571Z,3.45
2022-10-29T01:24:00.587Z,3.47
2022-10-29T01:26:07.957Z,3.60
2022-10-29T01:28:51.570Z,3.50
2022-10-29T01:31:06.045Z,3.53
2022-10-29T01:33:29.164Z,3.58
2022-10-29T01:35:56.585Z,3.45
2022-10-29T01:38:30.410Z,3.53
2022-10-29T01:40:45.488Z,3.15
2022-10-29T01:42:53.926Z,3.30
2022-10-29T01:45:11.800Z,3.33
2022-10-29T01:47:18.194Z,3.30
2022-10-29T01:49:27.358Z,2.97
2022-10-29T01:51:33.109Z,3.60
2022-10-29T01:53:36.781Z,3.10
2022-10-29T01:55:38.484Z,3.50
2022-10-29T01:57:42.528Z,3.30
2022-10-29T01:59:55.532Z,2.83
2022-10-29T02:02:08.943Z,3.00
2022-10-29T02:04:28.663Z,2.97
2022-10-29T02:07:00.306Z,3.03
2022-10-29T02:09:42.125Z,3.42
2022-10-29T02:11:58.145Z,3.03
2022-10-29T02:14:06.141Z,2.78
2022-10-29T02:16:10.198Z,3.05
2022-10-29T02:18:11.900Z,2.95
2022-10-29T02:20:15.198Z,3.15
2022-10-29T02:22:16.828Z,2.88
2022-10-29T02:24:18.304Z,2.70
2022-10-29T02:26:19.921Z,2.92
2022-10-29T02:28:21.658Z,3.20
2022-10-29T02:30:23.254Z,3.08
2022-10-29T02:32:24.948Z,3.10
2022-10-29T02:34:26.460Z,3.05
2022-10-29T02:36:28.027Z,3.20
2022-10-29T02:38:29.657Z,2.80
2022-10-29T02:40:31.082Z,2.50
2022-10-29T02:42:32.688Z,3.03
2022-10-29T02:44:34.344Z,3.20
2022-10-29T02:46:39.699Z,2.83
2022-10-29T02:48:41.950Z,3.00
2022-10-29T02:50:43.665Z,2.65
2022-10-29T02:52:45.496Z,2.50
2022-10-29T02:54:46.956Z,2.65
2022-10-29T02:56:48.563Z,3.05
2022-10-29T02:58:50.134Z,3.20
2022-10-29T03:00:52.496Z,3.10
2022-10-29T03:02:54.505Z,3.33
2022-10-29T03:04:56.221Z,3.30
2022-10-29T03:06:58.050Z,3.50
2022-10-29T03:08:59.667Z,3.28
2022-10-29T03:11:01.447Z,3.47
2022-10-29T03:13:03.088Z,3.70
2022-10-29T03:15:04.988Z,3.38
2022-10-29T03:17:06.904Z,3.50
2022-10-29T03:19:08.613Z,3.20
2022-10-29T03:21:10.244Z,3.13
2022-10-29T03:23:11.713Z,3.13
2022-10-29T03:25:13.286Z,3.38
2022-10-29T03:27:15.693Z,3.08
2022-10-29T03:29:17.155Z,3.05
2022-10-29T03:31:18.910Z,3.40
2022-10-29T03:33:20.672Z,3.60
2022-10-29T03:35:22.284Z,3.38
2022-10-29T03:37:23.968Z,3.67
2022-10-29T03:39:25.494Z,3.25
2022-10-29T03:41:26.986Z,3.20
2022-10-29T03:43:28.693Z,3.50
2022-10-29T03:45:30.300Z,3.72
2022-10-29T03:47:33.408Z,3.35
2022-10-29T03:49:34.985Z,3.28
2022-10-29T03:51:36.531Z,3.33
2022-10-29T03:53:38.179Z,3.10
2022-10-29T03:55:39.723Z,3.53
2022-10-29T03:57:41.410Z,3.60
2022-10-29T03:59:45.916Z,3.42
2022-10-29T04:01:50.423Z,3.22
2022-10-29T04:03:52.275Z,3.70
2022-10-29T04:05:54.291Z,3.25
2022-10-29T04:07:55.980Z,3.20
2022-10-29T04:09:57.910Z,3.47
2022-10-29T04:12:01.181Z,3.50
2022-10-29T04:14:02.826Z,3.05
2022-10-29T04:16:04.579Z,3.03
2022-10-29T04:18:06.566Z,3.38
2022-10-29T04:20:19.023Z,3.65
2022-10-29T04:29:35.693Z,3.53
2022-10-29T04:31:37.662Z,3.75
2022-10-29T04:33:39.311Z,3.70
2022-10-29T04:35:40.760Z,3.30
2022-10-29T04:37:42.309Z,3.25
2022-10-29T04:39:43.965Z,3.30
2022-10-29T04:41:49.536Z,2.90
2022-10-29T04:43:51.130Z,3.15
2022-10-29T04:45:53.745Z,2.95
2022-10-29T04:48:02.725Z,3.13
2022-10-29T04:50:04.589Z,2.97
2022-10-29T04:52:06.100Z,2.78
2022-10-29T04:54:07.783Z,3.03
2022-10-29T04:56:09.228Z,2.53
2022-10-29T04:58:16.689Z,2.80
2022-10-29T05:00:18.960Z,2.67
2022-10-29T05:02:20.588Z,2.72
2022-10-29T05:04:22.133Z,2.83
2022-10-29T05:06:23.753Z,2.63
2022-10-29T05:08:25.594Z,2.60
2022-10-29T05:10:29.303Z,2.97
2022-10-29T05:12:30.882Z,2.80
2022-10-29T05:14:32.737Z,2.97
2022-10-29T05:16:34.625Z,2.90
2022-10-29T05:18:37.559Z,2.80
2022-10-29T05:20:39.113Z,2.88
2022-10-29T05:22:40.781Z,3.03
2022-10-29T05:24:42.349Z,2.80
2022-10-29T05:26:43.972Z,3.05
2022-10-29T05:28:45.559Z,2.50
2022-10-29T05:30:48.822Z,2.83
2022-10-29T05:32:50.462Z,2.25
2022-10-29T05:34:52.166Z,2.70
2022-10-29T05:36:53.883Z,2.90
2022-10-29T05:38:55.513Z,3.00
2022-10-29T05:40:59.976Z,2.80
2022-10-29T05:43:02.111Z,2.92
2022-10-29T05:45:04.125Z,2.88
2022-10-29T05:47:07.073Z,2.58
2022-10-29T05:49:09.037Z,2.92
2022-10-29T05:51:10.736Z,3.15
2022-10-29T05:53:14.349Z,3.20
2022-10-29T05:55:16.086Z,3.80
2022-10-29T05:57:17.617Z,3.95
2022-10-29T05:59:19.307Z,3.67
2022-10-29T06:01:21.133Z,3.80
2022-10-29T06:03:23.215Z,3.35
2022-10-29T06:05:25.652Z,3.10
2022-10-29T06:07:27.102Z,3.60
2022-10-29T06:09:28.774Z,3.90
2022-10-29T06:11:30.427Z,3.88
2022-10-29T06:13:32.368Z,4.10
2022-10-29T06:15:34.525Z,4.30
2022-10-29T06:17:40.756Z,3.63
2022-10-29T06:19:42.815Z,4.13
2022-10-29T06:21:45.242Z,3.80
2022-10-29T06:23:47.046Z,3.55
2022-10-29T06:25:48.797Z,4.03
2022-10-29T06:28:05.939Z,3.80
2022-10-29T06:30:08.362Z,3.80
2022-10-29T06:32:10.164Z,3.92
2022-10-29T06:34:13.581Z,3.75
2022-10-29T06:36:15.272Z,4.07
2022-10-29T06:38:17.347Z,3.55
2022-10-29T06:40:19.376Z,3.75
2022-10-29T06:42:21.250Z,4.20
2022-10-29T06:44:22.873Z,4.40
2022-10-29T06:46:24.710Z,4.30
2022-10-29T06:48:29.482Z,4.43
2022-10-29T06:50:31.336Z,4.60
2022-10-29T06:52:33.540Z,4.85
2022-10-29T06:54:35.199Z,5.15
2022-10-29T06:56:39.945Z,6.22
2022-10-29T06:58:41.624Z,6.22
2022-10-29T07:00:44.438Z,5.95
2022-10-29T07:02:46.410Z,6.05
2022-10-29T07:04:49.509Z,6.50
2022-10-29T07:06:51.196Z,6.13
2022-10-29T07:08:52.827Z,6.80
2022-10-29T07:10:54.569Z,6.53
2022-10-29T07:12:56.268Z,7.15
2022-10-29T07:14:57.990Z,7.30
2022-10-29T07:16:59.709Z,7.47
2022-10-29T07:19:02.253Z,7.10
2022-10-29T07:21:04.559Z,7.90
2022-10-29T07:23:06.973Z,8.00
2022-10-29T07:25:10.370Z,7.07
2022-10-29T07:27:12.018Z,7.55
2022-10-29T07:29:13.943Z,7.43
2022-10-29T07:31:19.254Z,7.45
2022-10-29T07:33:21.038Z,7.25
2022-10-29T07:35:22.478Z,7.00
2022-10-29T07:37:23.948Z,7.07
2022-10-29T07:39:25.737Z,6.90
2022-10-29T07:41:27.491Z,6.10
2022-10-29T07:43:29.487Z,6.00
2022-10-29T07:45:31.732Z,5.03
2022-10-29T07:47:33.299Z,5.43
2022-10-29T07:49:35.000Z,4.25
2022-10-29T07:51:36.626Z,4.45
2022-10-29T07:53:38.587Z,4.45
2022-10-29T07:55:40.338Z,4.00
2022-10-29T07:57:41.745Z,4.10
2022-10-29T07:59:43.352Z,4.50
2022-10-29T08:01:45.504Z,4.22
2022-10-29T08:03:49.393Z,4.25
2022-10-29T08:05:56.270Z,4.65
2022-10-29T08:07:59.392Z,4.75
2022-10-29T08:10:01.364Z,4.32
2022-10-29T08:12:05.196Z,3.95
2022-10-29T08:14:06.856Z,4.13
2022-10-29T08:16:08.435Z,5.38
2022-10-29T08:18:14.876Z,6.63
2022-10-29T08:20:16.982Z,5.95
2022-10-29T08:22:18.672Z,6.60
2022-10-29T08:24:20.300Z,6.25
2022-10-29T08:26:22.156Z,6.35
2022-10-29T08:28:25.750Z,5.88
2022-10-29T08:30:28.057Z,5.68
2022-10-29T08:32:29.634Z,5.70
2022-10-29T08:34:31.338Z,5.65
2022-10-29T08:36:33.137Z,4.55
2022-10-29T08:38:34.845Z,5.05
2022-10-29T08:40:54.687Z,5.55
2022-10-29T08:43:08.662Z,6.25
2022-10-29T08:45:24.482Z,6.65
2022-10-29T08:47:26.210Z,5.75
2022-10-29T08:49:36.510Z,6.13
2022-10-29T08:51:44.504Z,5.43
2022-10-29T08:53:58.672Z,5.18
2022-10-29T08:56:11.181Z,5.35
2022-10-29T08:58:35.007Z,4.85
2022-10-29T09:00:41.963Z,4.95
2022-10-29T09:02:43.779Z,4.15
2022-10-29T09:04:45.805Z,4.20
2022-10-29T09:07:00.942Z,4.03
2022-10-29T09:09:21.271Z,3.78
2022-10-29T09:11:51.941Z,3.75
2022-10-29T09:14:31.651Z,3.67
2022-10-29T09:16:44.085Z,4.05
2022-10-29T09:19:19.864Z,4.20
2022-10-29T09:21:38.962Z,5.15
2022-10-29T09:23:54.929Z,4.70
2022-10-29T09:26:02.882Z,4.85
2022-10-29T09:28:30.501Z,4.65
2022-10-29T09:30:45.859Z,4.28
2022-10-29T09:32:59.786Z,4.35
2022-10-29T09:35:15.641Z,4.50
2022-10-29T09:37:23.824Z,4.30
2022-10-29T09:39:46.079Z,4.50
2022-10-29T09:41:49.060Z,4.10
2022-10-29T09:44:02.030Z,4.47
2022-10-29T09:46:12.342Z,4.10
2022-10-29T09:48:27.120Z,4.07
2022-10-29T09:50:48.387Z,4.20
2022-10-29T09:52:50.226Z,4.28
2022-10-29T09:54:54.737Z,4.18
2022-10-29T09:56:58.913Z,4.03
2022-10-29T09:59:38.084Z,4.07
2022-10-29T10:01:40.046Z,3.60
2022-10-29T10:03:45.800Z,3.00
2022-10-29T10:06:01.587Z,3.60
2022-10-29T10:08:13.585Z,3.10
2022-10-29T10:10:23.936Z,3.13
2022-10-29T10:12:37.670Z,3.15
2022-10-29T10:14:39.237Z,3.55
2022-10-29T10:16:41.168Z,3.30
2022-10-29T10:20:59.131Z,3.55
2022-10-29T10:23:01.950Z,3.33
2022-10-29T10:25:26.880Z,2.97
2022-10-29T10:27:31.914Z,3.15
2022-10-29T10:29:33.523Z,3.20
2022-10-29T10:31:35.015Z,2.97
2022-10-29T10:33:44.225Z,3.53
2022-10-29T10:35:45.935Z,3.08
2022-10-29T10:37:47.730Z,3.50
2022-10-29T10:40:03.057Z,2.83
2022-10-29T10:42:15.320Z,3.75
2022-10-29T10:44:18.536Z,3.50
2022-10-29T10:46:27.204Z,3.58
2022-10-29T10:48:33.655Z,3.42
2022-10-29T10:50:36.984Z,3.75
2022-10-29T10:52:39.647Z,3.38
2022-10-29T10:54:46.376Z,3.38
2022-10-29T10:57:01.214Z,4.25
2022-10-29T10:59:11.298Z,3.38
2022-10-29T11:01:20.371Z,3.30
2022-10-29T11:03:31.306Z,3.45
2022-10-29T11:05:40.668Z,3.08
2022-10-29T11:07:49.382Z,3.20
2022-10-29T11:09:54.394Z,3.38
2022-10-29T11:12:06.240Z,3.28
2022-10-29T11:14:17.811Z,2.88
2022-10-29T11:16:39.973Z,3.38
2022-10-29T11:18:57.270Z,3.15
2022-10-29T11:21:09.906Z,3.13
2022-10-29T11:23:29.581Z,3.13
2022-10-29T11:25:43.459Z,3.20
2022-10-29T11:28:06.165Z,3.38
2022-10-29T11:30:13.855Z,2.70
2022-10-29T11:33:06.545Z,3.35
2022-10-29T11:35:18.451Z,3.00
2022-10-29T11:37:48.423Z,3.22
2022-10-29T11:40:06.371Z,3.20
2022-10-29T11:42:09.950Z,2.70
2022-10-29T11:44:14.545Z,3.50
2022-10-29T11:46:46.835Z,3.42
2022-10-29T11:49:14.563Z,3.10
2022-10-29T11:51:26.232Z,3.20
2022-10-29T11:53:57.710Z,3.13
2022-10-29T11:56:25.343Z,3.25
2022-10-29T11:58:42.705Z,3.40
2022-10-29T12:01:21.078Z,3.30
2022-10-29T12:03:52.029Z,3.42
2022-10-29T12:06:16.329Z,3.10
2022-10-29T12:08:37.975Z,3.50
2022-10-29T12:10:51.913Z,3.40
2022-10-29T12:13:32.943Z,2.90
2022-10-29T12:15:47.152Z,3.60
2022-10-29T12:17:57.779Z,2.97
2022-10-29T12:20:15.343Z,3.03
2022-10-29T12:22:19.851Z,3.13
2022-10-29T12:25:09.404Z,3.47
2022-10-29T12:27:33.009Z,2.83
2022-10-29T12:30:05.868Z,2.70
2022-10-29T12:32:23.000Z,3.08
2022-10-29T12:34:55.624Z,3.00
2022-10-29T12:37:23.306Z,2.90
2022-10-29T12:39:49.339Z,2.92
2022-10-29T12:41:53.512Z,2.78
2022-10-29T12:44:18.857Z,3.30
2022-10-29T12:46:31.193Z,2.65
2022-10-29T12:48:57.687Z,3.75
2022-10-29T12:51:24.455Z,3.10
2022-10-29T12:53:40.325Z,3.78
2022-10-29T12:55:42.845Z,2.90
2022-10-29T12:57:44.637Z,3.03
2022-10-29T12:59:46.397Z,2.88
2022-10-29T13:04:28.303Z,3.08
2022-10-29T13:06:42.421Z,3.47
2022-10-29T13:08:56.283Z,3.25
2022-10-29T13:10:58.035Z,2.90
2022-10-29T13:13:00.051Z,3.13
2022-10-29T13:15:15.435Z,2.83
2022-10-29T13:17:26.237Z,2.50
2022-10-29T13:19:29.533Z,3.10
2022-10-29T13:22:04.620Z,3.47
2022-10-29T13:24:16.908Z,3.17
2022-10-29T13:26:55.437Z,3.17
2022-10-29T13:28:57.336Z,2.85
2022-10-29T13:30:58.810Z,3.03
2022-10-29T13:33:00.927Z,3.45
2022-10-29T13:35:22.802Z,3.63
2022-10-29T13:37:46.255Z,3.35
2022-10-29T13:40:22.782Z,3.40
2022-10-29T13:42:27.221Z,3.05
2022-10-29T13:44:29.258Z,3.55
2022-10-29T13:47:01.102Z,3.20
2022-10-29T13:49:30.957Z,3.80
2022-10-29T13:51:43.508Z,3.40
2022-10-29T13:54:03.099Z,3.72
2022-10-29T13:56:09.752Z,3.72
2022-10-29T13:58:30.294Z,3.75
2022-10-29T14:00:36.185Z,3.63
2022-10-29T14:02:43.995Z,3.67
2022-10-29T14:04:51.000Z,3.78
2022-10-29T14:06:57.456Z,3.67
2022-10-29T14:09:11.997Z,3.55
2022-10-29T14:11:20.865Z,4.05
2022-10-29T14:13:41.182Z,3.50
2022-10-29T14:16:03.749Z,3.40
2022-10-29T14:18:38.846Z,3.03
2022-10-29T14:20:40.577Z,3.45
2022-10-29T14:22:42.237Z,3.40
2022-10-29T14:24:43.918Z,3.80
2022-10-29T14:26:45.613Z,3.60
2022-10-29T14:28:47.309Z,3.58
2022-10-29T14:31:06.665Z,3.38
2022-10-29T14:33:19.159Z,3.72
2022-10-29T14:35:20.760Z,3.88
2022-10-29T14:37:31.840Z,3.85
2022-10-29T14:39:55.580Z,3.83
2022-10-29T14:41:59.422Z,3.72
2022-10-29T14:44:25.103Z,4.00
2022-10-29T14:46:28.957Z,4.18
2022-10-29T14:48:30.792Z,3.88
2022-10-29T14:50:32.303Z,3.83
2022-10-29T14:52:38.885Z,4.10
2022-10-29T14:54:42.168Z,3.80
2022-10-29T14:56:44.015Z,3.80
2022-10-29T14:58:49.044Z,3.50
2022-10-29T15:00:57.132Z,3.80
2022-10-29T15:02:59.658Z,3.50
2022-10-29T15:05:07.275Z,3.83
2022-10-29T15:07:24.399Z,3.95
2022-10-29T15:09:28.042Z,4.10
2022-10-29T15:11:34.239Z,3.58
2022-10-29T15:13:36.827Z,4.03
2022-10-29T15:15:38.616Z,4.50
2022-10-29T15:18:02.296Z,4.40
2022-10-29T15:20:06.395Z,4.78
2022-10-29T15:22:09.682Z,4.38
2022-10-29T15:24:20.650Z,4.07
2022-10-29T15:26:22.970Z,3.95
2022-10-29T15:28:27.512Z,4.00
2022-10-29T15:30:37.760Z,4.05
2022-10-29T15:32:39.863Z,3.75
2022-10-29T15:34:50.591Z,3.83
2022-10-29T15:36:57.733Z,3.45
2022-10-29T15:39:19.555Z,3.80
2022-10-29T15:41:50.497Z,3.40
2022-10-29T15:43:57.326Z,3.65
2022-10-29T15:46:00.997Z,4.20
2022-10-29T15:48:08.719Z,4.03
2022-10-29T15:50:16.128Z,4.38
2022-10-29T15:52:20.283Z,4.85
2022-10-29T15:54:22.147Z,4.82
2022-10-29T15:56:28.107Z,4.78
2022-10-29T15:58:30.129Z,4.50
2022-10-29T16:00:32.373Z,4.25
2022-10-29T16:02:34.382Z,3.53
2022-10-29T16:04:36.158Z,4.45
2022-10-29T16:06:37.706Z,4.18
2022-10-29T16:08:51.358Z,4.18
2022-10-29T16:10:54.473Z,4.20
2022-10-29T16:12:56.606Z,4.10
2022-10-29T16:14:58.477Z,4.13
2022-10-29T16:17:00.224Z,4.10
2022-10-29T16:19:01.729Z,4.70
2022-10-29T16:21:06.725Z,4.03
2022-10-29T16:23:10.570Z,4.22
2022-10-29T16:25:30.046Z,4.78
2022-10-29T16:27:31.731Z,5.50
2022-10-29T16:29:33.347Z,5.75
2022-10-29T16:31:35.144Z,6.30
2022-10-29T16:33:36.849Z,6.57
2022-10-29T16:35:38.492Z,6.00
2022-10-29T16:37:40.284Z,7.05
2022-10-29T16:39:42.083Z,7.95
2022-10-29T16:41:43.987Z,8.75
2022-10-29T16:43:46.839Z,8.07
2022-10-29T16:45:48.529Z,7.95
2022-10-29T16:47:53.522Z,8.68
2022-10-29T16:49:55.304Z,11.45
2022-10-29T16:51:57.125Z,19.60
2022-10-29T16:53:58.784Z,22.02
2022-10-29T16:56:01.729Z,27.17
2022-10-29T16:58:04.159Z,26.77
2022-10-29T17:00:07.526Z,24.50
2022-10-29T17:02:12.301Z,22.10
2022-10-29T17:04:14.203Z,18.77
2022-10-29T17:06:15.912Z,18.10
2022-10-29T17:08:17.711Z,16.30
2022-10-29T17:10:19.343Z,15.60
2022-10-29T17:12:21.450Z,14.30
2022-10-29T17:14:26.771Z,13.40
2022-10-29T17:16:28.437Z,12.60
2022-10-29T17:18:30.321Z,11.65
2022-10-29T17:20:32.497Z,10.45
2022-10-29T17:22:34.441Z,11.02
2022-10-29T17:24:36.609Z,10.05
2022-10-29T17:26:39.028Z,11.05
2022-10-29T17:28:40.755Z,10.55
2022-10-29T17:30:42.461Z,11.10
2022-10-29T17:32:44.103Z,13.48
2022-10-29T17:34:45.690Z,13.60
2022-10-29T17:36:47.432Z,14.32
2022-10-29T17:38:49.240Z,13.60
2022-10-29T17:40:50.797Z,15.23
2022-10-29T17:42:52.586Z,15.13
2022-10-29T17:44:54.208Z,15.15
2022-10-29T17:46:55.960Z,16.55
2022-10-29T17:48:58.095Z,15.32
2022-10-29T17:51:02.032Z,15.27
2022-10-29T17:53:04.055Z,14.45
2022-10-29T17:55:06.151Z,15.13
2022-10-29T17:57:07.812Z,16.67
2022-10-29T17:59:10.007Z,17.95
2022-10-29T18:01:12.100Z,17.33
2022-10-29T18:03:14.114Z,17.42
2022-10-29T18:05:15.765Z,17.92
2022-10-29T18:07:17.762Z,17.25
2022-10-29T18:09:21.229Z,15.80
2022-10-29T18:11:25.119Z,14.93
2022-10-29T18:13:26.786Z,13.60
2022-10-29T18:15:29.036Z,13.18
2022-10-29T18:17:34.289Z,13.13
2022-10-29T18:19:36.071Z,13.30
2022-10-29T18:21:37.982Z,11.77
2022-10-29T18:23:40.258Z,13.18
2022-10-29T18:25:42.342Z,11.70
2022-10-29T18:27:44.162Z,10.70
2022-10-29T18:29:46.436Z,10.95
2022-10-29T18:31:48.911Z,10.85
2022-10-29T18:33:52.227Z,9.07
2022-10-29T18:36:00.264Z,9.68
2022-10-29T18:38:02.065Z,8.77
2022-10-29T18:40:04.356Z,8.77
2022-10-29T18:42:06.322Z,9.05
2022-10-29T18:44:08.000Z,9.48
2022-10-29T18:46:10.488Z,8.23
2022-10-29T18:48:12.217Z,8.32
2022-10-29T18:50:14.136Z,7.65
2022-10-29T18:52:15.820Z,7.93
2022-10-29T18:54:19.612Z,7.30
2022-10-29T18:56:22.809Z,7.47
2022-10-29T18:58:26.656Z,8.25
2022-10-29T19:00:28.509Z,7.68
2022-10-29T19:02:30.223Z,8.70
2022-10-29T19:04:31.806Z,8.57
2022-10-29T19:06:36.436Z,8.98
2022-10-29T19:08:39.979Z,9.25
2022-10-29T19:10:43.328Z,9.10
2022-10-29T19:12:45.085Z,8.70
2022-10-29T19:14:46.636Z,8.45
2022-10-29T19:16:48.606Z,7.70
2022-10-29T19:19:03.124Z,7.50
2022-10-29T19:21:10.282Z,7.30
2022-10-29T19:23:13.899Z,6.68
2022-10-29T19:25:16.637Z,5.65
2022-10-29T19:27:18.841Z,6.05
2022-10-29T19:29:20.953Z,5.90
2022-10-29T19:31:26.604Z,5.70
2022-10-29T19:33:28.786Z,5.60
2022-10-29T19:35:30.737Z,6.03
2022-10-29T19:37:32.626Z,5.80
2022-10-29T19:39:34.311Z,5.57
2022-10-29T19:41:36.253Z,6.20
2022-10-29T19:43:40.401Z,6.28
2022-10-29T19:45:42.035Z,6.13
2022-10-29T19:47:44.062Z,6.22
2022-10-29T19:49:45.710Z,7.03
2022-10-29T19:51:48.293Z,7.07
2022-10-29T19:53:53.545Z,7.25
2022-10-29T19:55:55.340Z,7.47
2022-10-29T19:57:57.242Z,7.13
2022-10-29T19:59:59.200Z,7.00
2022-10-29T20:02:01.250Z,6.65
2022-10-29T20:04:03.340Z,7.10
2022-10-29T20:06:06.647Z,5.97
2022-10-29T20:08:11.510Z,5.95
2022-10-29T20:10:20.839Z,5.75
2022-10-29T20:12:22.659Z,5.75
2022-10-29T20:14:28.893Z,5.68
2022-10-29T20:16:31.053Z,5.68
2022-10-29T20:18:34.911Z,5.88
2022-10-29T20:20:36.639Z,5.70
2022-10-29T20:22:38.730Z,5.55
2022-10-29T20:24:40.543Z,5.38
2022-10-29T20:26:42.596Z,5.65
2022-10-29T20:28:44.735Z,5.57
2022-10-29T20:30:46.834Z,5.80
2022-10-29T20:32:49.560Z,5.63
2022-10-29T20:34:52.487Z,5.07
2022-10-29T20:36:54.338Z,5.88
2022-10-29T20:38:56.423Z,6.03
2022-10-29T20:40:57.952Z,5.60
2022-10-29T20:42:59.862Z,5.38
2022-10-29T20:45:01.685Z,5.65
2022-10-29T20:47:03.456Z,5.30
2022-10-29T20:49:05.290Z,5.10
2022-10-29T20:51:07.261Z,5.18
2022-10-29T20:55:16.469Z,5.32
2022-10-29T20:57:18.367Z,4.95
2022-10-29T20:59:20.334Z,5.00
2022-10-29T21:01:24.725Z,5.22
2022-10-29T21:03:28.828Z,5.22
2022-10-29T21:05:30.559Z,5.15
2022-10-29T21:07:32.622Z,4.85
2022-10-29T21:09:34.607Z,5.40
2022-10-29T21:11:36.513Z,5.93
2022-10-29T21:13:38.650Z,5.20
2022-10-29T21:15:40.504Z,6.05
2022-10-29T21:17:42.561Z,5.97
2022-10-29T21:19:44.460Z,5.90
2022-10-29T21:21:46.741Z,6.03
2022-10-29T21:23:49.335Z,6.43
2022-10-29T21:25:54.516Z,6.25
2022-10-29T21:27:56.859Z,5.75
2022-10-29T21:29:58.880Z,6.38
2022-10-29T21:32:00.793Z,5.65
2022-10-29T21:34:02.637Z,5.80
2022-10-29T21:36:04.897Z,5.50
2022-10-29T21:38:06.855Z,5.97
2022-10-29T21:40:09.774Z,6.05
2022-10-29T21:42:11.401Z,26.23
2022-10-29T21:44:14.210Z,34.13
2022-10-29T21:46:15.804Z,30.90
2022-10-29T21:48:17.830Z,22.35
2022-10-29T21:50:19.543Z,16.23
2022-10-29T21:52:21.435Z,12.23
2022-10-29T21:54:25.755Z,9.00
2022-10-29T21:56:30.023Z,7.55
2022-10-29T21:58:32.533Z,6.38
2022-10-29T22:00:34.361Z,5.97
2022-10-29T22:02:36.100Z,5.25
2022-10-29T22:04:37.608Z,5.20
2022-10-29T22:06:39.068Z,4.50
2022-10-29T22:08:41.402Z,4.72
2022-10-29T22:10:43.105Z,5.05
2022-10-29T22:12:45.003Z,4.93
2022-10-29T22:14:47.582Z,4.78
2022-10-29T22:16:49.028Z,4.30
2022-10-29T22:18:51.300Z,4.65
2022-10-29T22:21:14.447Z,5.30
2022-10-29T22:25:22.771Z,14.10
2022-10-29T22:27:24.568Z,18.98
2022-10-29T22:29:26.546Z,16.30
2022-10-29T22:31:28.477Z,14.90
2022-10-29T22:33:30.830Z,13.05
2022-10-29T22:35:33.646Z,10.95
2022-10-29T22:37:35.379Z,9.00
2022-10-29T22:39:37.015Z,7.88
2022-10-29T22:41:38.514Z,7.82
2022-10-29T22:43:41.034Z,6.85
2022-10-29T22:45:44.272Z,6.25
2022-10-29T22:47:45.890Z,5.38
2022-10-29T22:49:47.919Z,4.90
2022-10-29T22:51:49.566Z,4.55
2022-10-29T22:53:52.481Z,4.90
2022-10-29T22:55:54.535Z,4.47
2022-10-29T22:57:56.056Z,4.35
2022-10-29T22:59:57.711Z,4.25
2022-10-29T23:01:59.337Z,4.85
2022-10-29T23:04:01.706Z,4.13
2022-10-29T23:06:04.743Z,4.70
2022-10-29T23:08:06.445Z,4.72
2022-10-29T23:10:08.468Z,3.92
2022-10-29T23:12:09.972Z,4.40
2022-10-29T23:14:11.829Z,4.30
2022-10-29T23:16:14.024Z,4.40
2022-10-29T23:18:15.914Z,4.97
2022-10-29T23:20:17.457Z,3.97
2022-10-29T23:22:20.923Z,4.45
2022-10-29T23:24:23.923Z,4.30
2022-10-29T23:26:26.143Z,4.80
2022-10-29T23:28:32.956Z,4.53
2022-10-29T23:30:35.302Z,4.70
2022-10-29T23:32:36.764Z,4.90
2022-10-29T23:34:38.589Z,4.05
2022-10-29T23:36:40.254Z,4.25
2022-10-29T23:38:42.213Z,4.65
2022-10-29T23:40:45.262Z,4.70
2022-10-29T23:42:46.839Z,4.65
2022-10-29T23:44:48.568Z,4.38
2022-10-29T23:46:50.215Z,4.22
2022-10-29T23:48:52.053Z,3.97
2022-10-29T23:50:54.560Z,4.47
2022-10-29T23:52:56.527Z,4.20
2022-10-29T23:54:58.626Z,4.15
2022-10-29T23:57:00.153Z,4.18
2022-10-29T23:59:01.987Z,3.92
